sensor_id;sensor_type;location;lat;lon;timestamp;pressure;altitude;pressure_sealevel;temperature;humidity
60212;BME280;46079;48.686;15.598;2023-02-12T00:01:58;101356.56;;;19.21;33.30
60212;BME280;46079;48.686;15.598;2023-02-12T00:04:23;101350.38;;;19.22;33.45
60212;BME280;46079;48.686;15.598;2023-02-12T00:06:49;101358.25;;;19.22;33.48
60212;BME280;46079;48.686;15.598;2023-02-12T00:09:14;101351.22;;;19.22;33.38
60212;BME280;46079;48.686;15.598;2023-02-12T00:11:40;101366.94;;;19.22;33.51
60212;BME280;46079;48.686;15.598;2023-02-12T00:14:06;101366.94;;;19.22;33.35
60212;BME280;46079;48.686;15.598;2023-02-12T00:16:31;101371.34;;;19.22;33.32
60212;BME280;46079;48.686;15.598;2023-02-12T00:18:57;101355.53;;;19.23;33.50
60212;BME280;46079;48.686;15.598;2023-02-12T00:21:24;101357.31;;;19.23;33.38
60212;BME280;46079;48.686;15.598;2023-02-12T00:23:49;101356.38;;;19.24;33.55
60212;BME280;46079;48.686;15.598;2023-02-12T00:26:17;101376.53;;;19.23;33.43
60212;BME280;46079;48.686;15.598;2023-02-12T00:28:43;101375.56;;;19.24;33.36
60212;BME280;46079;48.686;15.598;2023-02-12T00:31:16;101380.81;;;19.24;33.61
60212;BME280;46079;48.686;15.598;2023-02-12T00:33:42;101380.81;;;19.24;33.37
60212;BME280;46079;48.686;15.598;2023-02-12T00:36:09;101378.13;;;19.26;33.42
60212;BME280;46079;48.686;15.598;2023-02-12T00:38:37;101383.38;;;19.26;33.41
60212;BME280;46079;48.686;15.598;2023-02-12T00:41:03;101378.13;;;19.26;33.63
60212;BME280;46079;48.686;15.598;2023-02-12T00:43:29;101390.28;;;19.27;33.34
60212;BME280;46079;48.686;15.598;2023-02-12T00:45:54;101380.75;;;19.26;33.55
60212;BME280;46079;48.686;15.598;2023-02-12T00:48:19;101385.03;;;19.27;33.34
60212;BME280;46079;48.686;15.598;2023-02-12T00:50:46;101383.25;;;19.27;33.36
60212;BME280;46079;48.686;15.598;2023-02-12T00:53:12;101375.38;;;19.27;33.22
60212;BME280;46079;48.686;15.598;2023-02-12T00:55:38;101386.75;;;19.28;33.36
60212;BME280;46079;48.686;15.598;2023-02-12T00:58:03;101388.41;;;19.29;33.30
60212;BME280;46079;48.686;15.598;2023-02-12T01:00:29;101397.25;;;19.28;33.63
60212;BME280;46079;48.686;15.598;2023-02-12T01:02:54;101389.25;;;19.29;33.41
60212;BME280;46079;48.686;15.598;2023-02-12T01:05:20;101391.03;;;19.29;33.26
60212;BME280;46079;48.686;15.598;2023-02-12T01:07:49;101392.72;;;19.30;33.43
60212;BME280;46079;48.686;15.598;2023-02-12T01:10:15;101374.34;;;19.30;33.46
60212;BME280;46079;48.686;15.598;2023-02-12T01:12:40;101384.84;;;19.30;33.56
60212;BME280;46079;48.686;15.598;2023-02-12T01:15:06;101394.44;;;19.31;33.67
60212;BME280;46079;48.686;15.598;2023-02-12T01:17:35;101384.75;;;19.31;33.25
60212;BME280;46079;48.686;15.598;2023-02-12T01:20:00;101397.06;;;19.31;33.35
60212;BME280;46079;48.686;15.598;2023-02-12T01:22:26;101402.28;;;19.31;33.39
60212;BME280;46079;48.686;15.598;2023-02-12T01:24:54;101403.13;;;19.31;33.49
60212;BME280;46079;48.686;15.598;2023-02-12T01:27:19;101407.53;;;19.31;33.52
60212;BME280;46079;48.686;15.598;2023-02-12T01:29:45;101397.88;;;19.31;33.69
60212;BME280;46079;48.686;15.598;2023-02-12T01:32:10;101403.97;;;19.32;33.47
60212;BME280;46079;48.686;15.598;2023-02-12T01:34:36;101402.28;;;19.31;33.51
60212;BME280;46079;48.686;15.598;2023-02-12T01:37:02;101407.44;;;19.32;33.27
60212;BME280;46079;48.686;15.598;2023-02-12T01:39:27;101412.69;;;19.32;33.57
60212;BME280;46079;48.686;15.598;2023-02-12T01:41:53;101423.16;;;19.32;33.68
60212;BME280;46079;48.686;15.598;2023-02-12T01:44:20;101422.25;;;19.33;33.31
60212;BME280;46079;48.686;15.598;2023-02-12T01:46:55;101432.75;;;19.33;33.51
60212;BME280;46079;48.686;15.598;2023-02-12T01:49:21;101422.25;;;19.33;33.48
60212;BME280;46079;48.686;15.598;2023-02-12T01:51:53;101424.00;;;19.33;33.55
60212;BME280;46079;48.686;15.598;2023-02-12T01:54:21;101437.13;;;19.33;33.47
60212;BME280;46079;48.686;15.598;2023-02-12T01:56:50;101426.63;;;19.33;33.63
60212;BME280;46079;48.686;15.598;2023-02-12T01:59:16;101417.84;;;19.34;33.46
60212;BME280;46079;48.686;15.598;2023-02-12T02:01:43;101420.47;;;19.34;33.51
60212;BME280;46079;48.686;15.598;2023-02-12T02:04:12;101423.09;;;19.34;33.51
60212;BME280;46079;48.686;15.598;2023-02-12T02:06:47;101415.22;;;19.34;33.52
60212;BME280;46079;48.686;15.598;2023-02-12T02:09:15;101413.44;;;19.35;33.61
60212;BME280;46079;48.686;15.598;2023-02-12T02:11:41;101408.19;;;19.35;33.68
60212;BME280;46079;48.686;15.598;2023-02-12T02:14:25;101396.75;;;19.36;33.72
60212;BME280;46079;48.686;15.598;2023-02-12T02:17:06;101399.38;;;19.36;33.39
60212;BME280;46079;48.686;15.598;2023-02-12T02:30:22;101420.34;;;19.36;33.59
60212;BME280;46079;48.686;15.598;2023-02-12T02:35:31;101428.22;;;19.36;33.46
60212;BME280;46079;48.686;15.598;2023-02-12T02:40:40;101428.22;;;19.36;33.63
60212;BME280;46079;48.686;15.598;2023-02-12T02:43:15;101429.19;;;19.35;33.75
60212;BME280;46079;48.686;15.598;2023-02-12T02:45:50;101418.69;;;19.35;33.18
60212;BME280;46079;48.686;15.598;2023-02-12T02:48:26;101419.50;;;19.35;33.42
60212;BME280;46079;48.686;15.598;2023-02-12T02:51:00;101439.56;;;19.36;33.52
60212;BME280;46079;48.686;15.598;2023-02-12T02:53:55;101436.09;;;19.36;33.47
60212;BME280;46079;48.686;15.598;2023-02-12T02:56:18;101440.50;;;19.35;33.44
60212;BME280;46079;48.686;15.598;2023-02-12T02:58:52;101439.56;;;19.36;33.53
60212;BME280;46079;48.686;15.598;2023-02-12T03:01:28;101451.00;;;19.35;33.56
60212;BME280;46079;48.686;15.598;2023-02-12T03:03:59;101450.06;;;19.36;33.43
60212;BME280;46079;48.686;15.598;2023-02-12T03:06:32;101451.84;;;19.36;33.36
60212;BME280;46079;48.686;15.598;2023-02-12T03:09:05;101460.56;;;19.36;33.67
60212;BME280;46079;48.686;15.598;2023-02-12T03:11:34;101463.19;;;19.36;33.47
60212;BME280;46079;48.686;15.598;2023-02-12T03:19:24;101471.03;;;19.36;33.77
60212;BME280;46079;48.686;15.598;2023-02-12T03:21:59;101461.50;;;19.35;33.80
60212;BME280;46079;48.686;15.598;2023-02-12T03:24:34;101476.28;;;19.36;33.58
60212;BME280;46079;48.686;15.598;2023-02-12T03:27:12;101478.91;;;19.36;33.55
60212;BME280;46079;48.686;15.598;2023-02-12T03:29:40;101486.78;;;19.36;33.58
60212;BME280;46079;48.686;15.598;2023-02-12T03:34:50;101478.06;;;19.36;33.69
60212;BME280;46079;48.686;15.598;2023-02-12T03:37:32;101472.84;;;19.36;33.70
60212;BME280;46079;48.686;15.598;2023-02-12T03:40:18;101487.75;;;19.35;33.59
60212;BME280;46079;48.686;15.598;2023-02-12T03:45:33;101494.66;;;19.36;33.59
60212;BME280;46079;48.686;15.598;2023-02-12T03:50:40;101502.53;;;19.36;33.65
60212;BME280;46079;48.686;15.598;2023-02-12T03:53:09;101498.22;;;19.35;33.68
60212;BME280;46079;48.686;15.598;2023-02-12T03:55:39;101502.53;;;19.36;33.69
60212;BME280;46079;48.686;15.598;2023-02-12T03:58:08;101499.91;;;19.36;33.64
60212;BME280;46079;48.686;15.598;2023-02-12T04:00:38;101513.97;;;19.35;33.58
60212;BME280;46079;48.686;15.598;2023-02-12T04:03:04;101521.84;;;19.35;33.84
60212;BME280;46079;48.686;15.598;2023-02-12T04:05:31;101530.66;;;19.34;33.84
60212;BME280;46079;48.686;15.598;2023-02-12T04:07:57;101528.03;;;19.34;33.72
60212;BME280;46079;48.686;15.598;2023-02-12T04:10:41;101530.66;;;19.34;33.73
60212;BME280;46079;48.686;15.598;2023-02-12T04:16:01;101533.28;;;19.34;33.46
60212;BME280;46079;48.686;15.598;2023-02-12T04:18:40;101533.28;;;19.34;33.66
60212;BME280;46079;48.686;15.598;2023-02-12T04:21:42;101534.13;;;19.35;33.81
60212;BME280;46079;48.686;15.598;2023-02-12T04:24:28;101533.28;;;19.34;33.43
60212;BME280;46079;48.686;15.598;2023-02-12T04:27:02;101541.16;;;19.34;33.66
60212;BME280;46079;48.686;15.598;2023-02-12T04:29:52;101531.59;;;19.33;33.52
60212;BME280;46079;48.686;15.598;2023-02-12T04:35:03;101545.56;;;19.33;33.80
60212;BME280;46079;48.686;15.598;2023-02-12T04:37:37;101560.44;;;19.33;33.73
60212;BME280;46079;48.686;15.598;2023-02-12T04:40:08;101552.56;;;19.33;33.72
60212;BME280;46079;48.686;15.598;2023-02-12T04:43:00;101547.31;;;19.33;33.78
60212;BME280;46079;48.686;15.598;2023-02-12T04:45:29;101557.81;;;19.33;33.72
60212;BME280;46079;48.686;15.598;2023-02-12T04:47:55;101556.16;;;19.32;33.74
60212;BME280;46079;48.686;15.598;2023-02-12T04:50:21;101563.06;;;19.33;33.67
60212;BME280;46079;48.686;15.598;2023-02-12T04:52:47;101553.53;;;19.32;33.59
60212;BME280;46079;48.686;15.598;2023-02-12T04:55:13;101563.06;;;19.33;33.84
60212;BME280;46079;48.686;15.598;2023-02-12T04:57:38;101557.81;;;19.33;33.79
60212;BME280;46079;48.686;15.598;2023-02-12T05:00:11;101560.44;;;19.33;33.67
60212;BME280;46079;48.686;15.598;2023-02-12T05:02:37;101563.06;;;19.33;33.71
60212;BME280;46079;48.686;15.598;2023-02-12T05:05:03;101570.94;;;19.33;33.66
60212;BME280;46079;48.686;15.598;2023-02-12T05:07:29;101579.75;;;19.32;33.87
60212;BME280;46079;48.686;15.598;2023-02-12T05:09:54;101574.50;;;19.32;33.68
60212;BME280;46079;48.686;15.598;2023-02-12T05:12:20;101582.38;;;19.32;33.60
60212;BME280;46079;48.686;15.598;2023-02-12T05:14:45;101585.00;;;19.32;33.75
60212;BME280;46079;48.686;15.598;2023-02-12T05:17:10;101588.47;;;19.32;33.75
60212;BME280;46079;48.686;15.598;2023-02-12T05:19:36;101595.56;;;19.30;33.62
60212;BME280;46079;48.686;15.598;2023-02-12T05:22:01;101593.81;;;19.31;33.56
60212;BME280;46079;48.686;15.598;2023-02-12T05:24:27;101592.03;;;19.31;33.79
60212;BME280;46079;48.686;15.598;2023-02-12T05:26:52;101591.19;;;19.31;33.67
60212;BME280;46079;48.686;15.598;2023-02-12T05:29:18;101602.53;;;19.31;33.87
60212;BME280;46079;48.686;15.598;2023-02-12T05:31:44;101606.94;;;19.31;33.68
60212;BME280;46079;48.686;15.598;2023-02-12T05:34:10;101617.44;;;19.31;33.78
60212;BME280;46079;48.686;15.598;2023-02-12T05:36:37;101620.06;;;19.31;33.90
60212;BME280;46079;48.686;15.598;2023-02-12T05:39:03;101622.69;;;19.31;33.54
60212;BME280;46079;48.686;15.598;2023-02-12T05:41:29;101630.56;;;19.31;33.83
60212;BME280;46079;48.686;15.598;2023-02-12T05:43:59;101627.06;;;19.30;33.80
60212;BME280;46079;48.686;15.598;2023-02-12T05:46:24;101630.56;;;19.31;33.54
60212;BME280;46079;48.686;15.598;2023-02-12T05:48:50;101631.47;;;19.30;33.90
60212;BME280;46079;48.686;15.598;2023-02-12T05:51:17;101643.66;;;19.31;33.90
60212;BME280;46079;48.686;15.598;2023-02-12T05:53:46;101642.81;;;19.30;33.71
60212;BME280;46079;48.686;15.598;2023-02-12T05:58:41;101641.88;;;19.31;33.90
60212;BME280;46079;48.686;15.598;2023-02-12T06:01:46;101645.53;;;19.29;33.61
60212;BME280;46079;48.686;15.598;2023-02-12T06:04:05;101649.94;;;19.28;33.76
60212;BME280;46079;48.686;15.598;2023-02-12T06:06:32;101655.09;;;19.30;33.61
60212;BME280;46079;48.686;15.598;2023-02-12T06:08:58;101661.28;;;19.29;33.73
60212;BME280;46079;48.686;15.598;2023-02-12T06:11:24;101663.06;;;19.28;33.87
60212;BME280;46079;48.686;15.598;2023-02-12T06:13:50;101667.38;;;19.29;33.82
60212;BME280;46079;48.686;15.598;2023-02-12T06:16:24;101682.25;;;19.29;33.77
60212;BME280;46079;48.686;15.598;2023-02-12T06:18:50;101687.50;;;19.29;33.76
60212;BME280;46079;48.686;15.598;2023-02-12T06:21:18;101691.09;;;19.28;33.66
60212;BME280;46079;48.686;15.598;2023-02-12T06:23:44;101695.38;;;19.29;34.10
60212;BME280;46079;48.686;15.598;2023-02-12T06:26:09;101690.22;;;19.27;33.71
60212;BME280;46079;48.686;15.598;2023-02-12T06:28:35;101691.91;;;19.28;33.73
60212;BME280;46079;48.686;15.598;2023-02-12T06:31:01;101696.31;;;19.28;33.86
60212;BME280;46079;48.686;15.598;2023-02-12T06:33:26;101705.13;;;19.27;33.88
60212;BME280;46079;48.686;15.598;2023-02-12T06:35:52;101707.66;;;19.28;33.64
60212;BME280;46079;48.686;15.598;2023-02-12T06:38:17;101699.88;;;19.27;33.81
60212;BME280;46079;48.686;15.598;2023-02-12T06:40:42;101701.56;;;19.28;33.66
60212;BME280;46079;48.686;15.598;2023-02-12T06:43:08;101698.19;;;19.26;33.87
60212;BME280;46079;48.686;15.598;2023-02-12T06:45:34;101704.28;;;19.26;33.57
60212;BME280;46079;48.686;15.598;2023-02-12T06:47:59;101705.13;;;19.27;33.62
60212;BME280;46079;48.686;15.598;2023-02-12T06:50:25;101713.94;;;19.26;33.62
60212;BME280;46079;48.686;15.598;2023-02-12T06:52:51;101713.81;;;19.27;34.36
60212;BME280;46079;48.686;15.598;2023-02-12T06:55:16;101713.94;;;19.26;33.50
60212;BME280;46079;48.686;15.598;2023-02-12T06:57:42;101719.19;;;19.26;33.72
60212;BME280;46079;48.686;15.598;2023-02-12T07:00:08;101713.94;;;19.26;33.76
60212;BME280;46079;48.686;15.598;2023-02-12T07:02:34;101720.00;;;19.26;33.82
60212;BME280;46079;48.686;15.598;2023-02-12T07:04:59;101722.63;;;19.26;33.85
60212;BME280;46079;48.686;15.598;2023-02-12T07:07:25;101723.59;;;19.25;33.85
60212;BME280;46079;48.686;15.598;2023-02-12T07:09:50;101719.19;;;19.26;33.84
60212;BME280;46079;48.686;15.598;2023-02-12T07:12:16;101724.41;;;19.26;33.67
60212;BME280;46079;48.686;15.598;2023-02-12T07:14:41;101717.38;;;19.26;33.89
60212;BME280;46079;48.686;15.598;2023-02-12T07:17:06;101728.72;;;19.27;33.90
60212;BME280;46079;48.686;15.598;2023-02-12T07:19:34;101727.88;;;19.26;33.78
60212;BME280;46079;48.686;15.598;2023-02-12T07:22:00;101732.28;;;19.26;33.96
60212;BME280;46079;48.686;15.598;2023-02-12T07:24:25;101734.91;;;19.26;33.70
60212;BME280;46079;48.686;15.598;2023-02-12T07:26:51;101738.31;;;19.28;33.93
60212;BME280;46079;48.686;15.598;2023-02-12T07:29:16;101732.28;;;19.26;33.63
60212;BME280;46079;48.686;15.598;2023-02-12T07:31:42;101746.25;;;19.26;33.90
60212;BME280;46079;48.686;15.598;2023-02-12T07:34:08;101745.41;;;19.26;33.83
60212;BME280;46079;48.686;15.598;2023-02-12T07:36:34;101747.19;;;19.25;33.95
60212;BME280;46079;48.686;15.598;2023-02-12T07:38:59;101752.50;;;19.24;33.85
60212;BME280;46079;48.686;15.598;2023-02-12T07:41:30;101754.19;;;19.25;33.82
60212;BME280;46079;48.686;15.598;2023-02-12T07:44:05;101757.75;;;19.24;33.93
60212;BME280;46079;48.686;15.598;2023-02-12T07:46:43;101763.00;;;19.24;33.73
60212;BME280;46079;48.686;15.598;2023-02-12T07:49:17;101768.25;;;19.24;33.82
60212;BME280;46079;48.686;15.598;2023-02-12T07:51:43;101769.19;;;19.23;34.05
60212;BME280;46079;48.686;15.598;2023-02-12T07:54:09;101764.78;;;19.23;33.84
60212;BME280;46079;48.686;15.598;2023-02-12T07:56:35;101768.25;;;19.24;33.80
60212;BME280;46079;48.686;15.598;2023-02-12T07:59:06;101773.50;;;19.24;33.95
60212;BME280;46079;48.686;15.598;2023-02-12T08:01:33;101770.03;;;19.23;33.62
60212;BME280;46079;48.686;15.598;2023-02-12T08:04:04;101762.16;;;19.23;33.95
60212;BME280;46079;48.686;15.598;2023-02-12T08:06:31;101770.03;;;19.23;33.68
60212;BME280;46079;48.686;15.598;2023-02-12T08:08:59;101777.81;;;19.25;33.84
60212;BME280;46079;48.686;15.598;2023-02-12T08:11:26;101766.47;;;19.24;33.91
60212;BME280;46079;48.686;15.598;2023-02-12T08:13:52;101779.53;;;19.26;33.81
60212;BME280;46079;48.686;15.598;2023-02-12T08:16:20;101780.44;;;19.25;34.00
60212;BME280;46079;48.686;15.598;2023-02-12T08:18:46;101787.38;;;19.26;33.84
60212;BME280;46079;48.686;15.598;2023-02-12T08:21:17;101780.44;;;19.25;33.81
60212;BME280;46079;48.686;15.598;2023-02-12T08:23:43;101795.16;;;19.27;33.71
60212;BME280;46079;48.686;15.598;2023-02-12T08:26:13;101789.91;;;19.27;33.74
60212;BME280;46079;48.686;15.598;2023-02-12T08:28:44;101792.47;;;19.29;33.83
60212;BME280;46079;48.686;15.598;2023-02-12T08:31:18;101783.66;;;19.30;33.74
60212;BME280;46079;48.686;15.598;2023-02-12T08:33:46;101794.16;;;19.30;33.75
60212;BME280;46079;48.686;15.598;2023-02-12T08:36:14;101795.84;;;19.31;33.71
60212;BME280;46079;48.686;15.598;2023-02-12T08:38:41;101792.28;;;19.32;33.74
60212;BME280;46079;48.686;15.598;2023-02-12T08:41:09;101788.66;;;19.35;33.70
60212;BME280;46079;48.686;15.598;2023-02-12T08:43:38;101790.25;;;19.37;33.75
60212;BME280;46079;48.686;15.598;2023-02-12T08:48:33;101790.09;;;19.40;33.70
60212;BME280;46079;48.686;15.598;2023-02-12T08:51:11;101792.72;;;19.40;33.67
60212;BME280;46079;48.686;15.598;2023-02-12T08:53:39;101782.97;;;19.42;33.67
60212;BME280;46079;48.686;15.598;2023-02-12T08:56:05;101788.22;;;19.42;33.74
60212;BME280;46079;48.686;15.598;2023-02-12T08:58:31;101796.09;;;19.42;33.73
60212;BME280;46079;48.686;15.598;2023-02-12T09:00:57;101797.00;;;19.41;33.70
60212;BME280;46079;48.686;15.598;2023-02-12T09:03:22;101800.41;;;19.43;33.77
60212;BME280;46079;48.686;15.598;2023-02-12T09:05:48;101788.13;;;19.44;33.73
60212;BME280;46079;48.686;15.598;2023-02-12T09:08:14;101795.94;;;19.45;33.67
60212;BME280;46079;48.686;15.598;2023-02-12T09:10:41;101798.44;;;19.47;33.67
60212;BME280;46079;48.686;15.598;2023-02-12T09:13:08;101809.03;;;19.45;33.93
60212;BME280;46079;48.686;15.598;2023-02-12T09:15:38;101805.59;;;19.45;33.65
60212;BME280;46079;48.686;15.598;2023-02-12T09:18:03;101825.72;;;19.44;33.79
60212;BME280;46079;48.686;15.598;2023-02-12T09:20:29;101817.84;;;19.44;33.62
60212;BME280;46079;48.686;15.598;2023-02-12T09:22:56;101829.19;;;19.45;33.65
60212;BME280;46079;48.686;15.598;2023-02-12T09:25:22;101830.03;;;19.45;33.82
60212;BME280;46079;48.686;15.598;2023-02-12T09:27:47;101827.31;;;19.47;33.68
60212;BME280;46079;48.686;15.598;2023-02-12T09:30:13;101822.94;;;19.47;33.61
60212;BME280;46079;48.686;15.598;2023-02-12T09:32:38;101826.31;;;19.49;33.71
60212;BME280;46079;48.686;15.598;2023-02-12T09:35:04;101825.47;;;19.49;33.86
60212;BME280;46079;48.686;15.598;2023-02-12T09:37:29;101832.50;;;19.48;33.55
60212;BME280;46079;48.686;15.598;2023-02-12T09:39:55;101843.00;;;19.48;33.68
60212;BME280;46079;48.686;15.598;2023-02-12T09:45:36;101846.38;;;19.50;33.81
60212;BME280;46079;48.686;15.598;2023-02-12T09:48:15;101836.78;;;19.49;33.77
60212;BME280;46079;48.686;15.598;2023-02-12T09:50:52;101850.69;;;19.51;33.77
60212;BME280;46079;48.686;15.598;2023-02-12T09:53:21;101861.19;;;19.51;33.92
60212;BME280;46079;48.686;15.598;2023-02-12T09:55:48;101842.81;;;19.51;33.85
60212;BME280;46079;48.686;15.598;2023-02-12T09:58:18;101848.06;;;19.51;33.94
60212;BME280;46079;48.686;15.598;2023-02-12T10:00:44;101854.09;;;19.53;33.91
60212;BME280;46079;48.686;15.598;2023-02-12T10:03:15;101856.78;;;19.52;33.64
60212;BME280;46079;48.686;15.598;2023-02-12T10:05:43;101853.31;;;19.51;33.80
60212;BME280;46079;48.686;15.598;2023-02-12T10:08:27;101856.78;;;19.52;33.90
60212;BME280;46079;48.686;15.598;2023-02-12T10:27:50;101860.19;;;19.54;33.85
60212;BME280;46079;48.686;15.598;2023-02-12T10:30:20;101862.81;;;19.54;33.78
60212;BME280;46079;48.686;15.598;2023-02-12T10:32:49;101863.75;;;19.53;33.82
60212;BME280;46079;48.686;15.598;2023-02-12T10:35:17;101864.47;;;19.55;33.76
60212;BME280;46079;48.686;15.598;2023-02-12T10:37:49;101866.28;;;19.54;34.03
60212;BME280;46079;48.686;15.598;2023-02-12T10:40:30;101871.50;;;19.54;33.84
60212;BME280;46079;48.686;15.598;2023-02-12T10:43:00;101874.91;;;19.57;33.72
60212;BME280;46079;48.686;15.598;2023-02-12T10:45:32;101867.97;;;19.55;33.77
60212;BME280;46079;48.686;15.598;2023-02-12T10:50:50;101854.75;;;19.57;33.77
60212;BME280;46079;48.686;15.598;2023-02-12T10:53:25;101859.16;;;19.57;33.92
60212;BME280;46079;48.686;15.598;2023-02-12T10:56:23;101845.09;;;19.58;33.83
60212;BME280;46079;48.686;15.598;2023-02-12T10:58:53;101850.34;;;19.58;33.88
60212;BME280;46079;48.686;15.598;2023-02-12T11:01:20;101846.81;;;19.59;33.97
60212;BME280;46079;48.686;15.598;2023-02-12T11:03:47;101852.06;;;19.59;33.84
60212;BME280;46079;48.686;15.598;2023-02-12T11:06:14;101845.97;;;19.58;33.83
60212;BME280;46079;48.686;15.598;2023-02-12T11:08:40;101857.19;;;19.60;33.82
60212;BME280;46079;48.686;15.598;2023-02-12T11:13:46;101840.53;;;19.61;33.86
60212;BME280;46079;48.686;15.598;2023-02-12T11:16:33;101832.72;;;19.60;33.93
60212;BME280;46079;48.686;15.598;2023-02-12T11:19:01;101837.03;;;19.61;33.93
60212;BME280;46079;48.686;15.598;2023-02-12T11:21:29;101838.75;;;19.62;33.86
60212;BME280;46079;48.686;15.598;2023-02-12T11:23:54;101832.66;;;19.61;33.93
60212;BME280;46079;48.686;15.598;2023-02-12T11:26:26;101824.78;;;19.61;33.99
60212;BME280;46079;48.686;15.598;2023-02-12T11:29:01;101823.00;;;19.62;33.93
60212;BME280;46079;48.686;15.598;2023-02-12T11:31:33;101823.78;;;19.64;34.01
60212;BME280;46079;48.686;15.598;2023-02-12T11:36:41;101829.03;;;19.64;33.93
60212;BME280;46079;48.686;15.598;2023-02-12T11:39:14;101821.16;;;19.64;33.96
60212;BME280;46079;48.686;15.598;2023-02-12T11:41:42;101821.16;;;19.64;33.91
60212;BME280;46079;48.686;15.598;2023-02-12T11:44:10;101825.44;;;19.65;33.83
60212;BME280;46079;48.686;15.598;2023-02-12T11:46:38;101821.91;;;19.66;33.90
60212;BME280;46079;48.686;15.598;2023-02-12T11:49:05;101819.28;;;19.66;33.84
60212;BME280;46079;48.686;15.598;2023-02-12T11:51:35;101828.88;;;19.67;33.99
60212;BME280;46079;48.686;15.598;2023-02-12T11:54:03;101825.31;;;19.68;34.10
60212;BME280;46079;48.686;15.598;2023-02-12T11:56:44;101822.69;;;19.68;33.87
60212;BME280;46079;48.686;15.598;2023-02-12T12:02:00;101815.66;;;19.68;34.06
60212;BME280;46079;48.686;15.598;2023-02-12T12:04:32;101823.44;;;19.70;33.88
60212;BME280;46079;48.686;15.598;2023-02-12T12:07:12;101817.25;;;19.71;33.97
60212;BME280;46079;48.686;15.598;2023-02-12T12:09:55;101822.44;;;19.72;33.96
60212;BME280;46079;48.686;15.598;2023-02-12T12:14:55;101819.69;;;19.74;33.94
60212;BME280;46079;48.686;15.598;2023-02-12T12:17:59;101819.69;;;19.74;33.91
60212;BME280;46079;48.686;15.598;2023-02-12T12:20:51;101813.59;;;19.73;33.94
60212;BME280;46079;48.686;15.598;2023-02-12T12:23:24;101817.06;;;19.74;33.87
60212;BME280;46079;48.686;15.598;2023-02-12T12:26:01;101811.75;;;19.75;34.16
60212;BME280;46079;48.686;15.598;2023-02-12T12:31:22;101816.91;;;19.77;33.90
60212;BME280;46079;48.686;15.598;2023-02-12T12:48:30;101804.53;;;19.79;33.92
60212;BME280;46079;48.686;15.598;2023-02-12T12:51:35;101812.41;;;19.79;34.12
60212;BME280;46079;48.686;15.598;2023-02-12T12:54:18;101800.13;;;19.80;34.11
60212;BME280;46079;48.686;15.598;2023-02-12T12:57:04;101803.63;;;19.80;34.17
60212;BME280;46079;48.686;15.598;2023-02-12T13:00:24;101800.88;;;19.82;34.04
60212;BME280;46079;48.686;15.598;2023-02-12T13:16:00;101818.25;;;19.84;34.24
60212;BME280;46079;48.686;15.598;2023-02-12T13:23:53;101804.94;;;19.87;34.26
60212;BME280;46079;48.686;15.598;2023-02-12T13:26:53;101809.34;;;19.87;34.25
60212;BME280;46079;48.686;15.598;2023-02-12T13:29:19;101812.81;;;19.87;34.10
60212;BME280;46079;48.686;15.598;2023-02-12T13:31:52;101817.16;;;19.88;34.35
60212;BME280;46079;48.686;15.598;2023-02-12T13:34:19;101810.19;;;19.87;34.23
60212;BME280;46079;48.686;15.598;2023-02-12T13:36:48;101799.63;;;19.89;34.13
60212;BME280;46079;48.686;15.598;2023-02-12T13:39:36;101809.16;;;19.90;34.21
60212;BME280;46079;48.686;15.598;2023-02-12T13:45:06;101809.16;;;19.90;34.18
60212;BME280;46079;48.686;15.598;2023-02-12T13:50:33;101801.22;;;19.91;34.22
60212;BME280;46079;48.686;15.598;2023-02-12T13:58:53;101795.78;;;19.94;34.28
60212;BME280;46079;48.686;15.598;2023-02-12T14:01:38;101796.63;;;19.95;34.29
60212;BME280;46079;48.686;15.598;2023-02-12T14:09:37;101788.66;;;19.96;34.37
60212;BME280;46079;48.686;15.598;2023-02-12T14:12:07;101792.22;;;19.95;34.34
60212;BME280;46079;48.686;15.598;2023-02-12T14:14:37;101797.38;;;19.97;34.28
60212;BME280;46079;48.686;15.598;2023-02-12T14:27:47;101799.81;;;20.00;34.15
60212;BME280;46079;48.686;15.598;2023-02-12T14:35:40;101795.41;;;20.01;34.33
60212;BME280;46079;48.686;15.598;2023-02-12T14:40:42;101804.97;;;20.02;34.47
60212;BME280;46079;48.686;15.598;2023-02-12T14:43:34;101808.47;;;20.02;34.48
60212;BME280;46079;48.686;15.598;2023-02-12T14:48:56;101804.06;;;20.03;34.44
60212;BME280;46079;48.686;15.598;2023-02-12T14:56:55;101820.66;;;20.03;34.48
60212;BME280;46079;48.686;15.598;2023-02-12T14:59:23;101819.81;;;20.03;34.32
60212;BME280;46079;48.686;15.598;2023-02-12T15:01:50;101816.25;;;20.04;34.25
60212;BME280;46079;48.686;15.598;2023-02-12T15:04:25;101826.69;;;20.05;34.44
60212;BME280;46079;48.686;15.598;2023-02-12T15:07:13;101825.81;;;20.05;34.57
60212;BME280;46079;48.686;15.598;2023-02-12T15:09:49;101823.19;;;20.05;34.42
60212;BME280;46079;48.686;15.598;2023-02-12T15:12:19;101823.94;;;20.07;34.53
60212;BME280;46079;48.686;15.598;2023-02-12T15:18:15;101833.53;;;20.08;34.48
60212;BME280;46079;48.686;15.598;2023-02-12T15:21:05;101826.56;;;20.07;34.51
60212;BME280;46079;48.686;15.598;2023-02-12T15:23:43;101830.03;;;20.07;34.55
60212;BME280;46079;48.686;15.598;2023-02-12T15:26:22;101829.13;;;20.08;34.53
60212;BME280;46079;48.686;15.598;2023-02-12T15:28:50;101828.28;;;20.08;34.43
60212;BME280;46079;48.686;15.598;2023-02-12T15:31:21;101829.13;;;20.08;34.53
60212;BME280;46079;48.686;15.598;2023-02-12T15:33:51;101831.75;;;20.08;34.56